sensor_id;sensor_type;location;lat;lon;timestamp;pressure;altitude;pressure_sealevel;temperature;humidity
77881;BME280;67077;50.298;18.996;2023-10-31T00:01:44;96566.33;;;13.01;100.00
77881;BME280;67077;50.298;18.996;2023-10-31T00:04:12;96564.98;;;13.05;100.00
77881;BME280;67077;50.298;18.996;2023-10-31T00:06:40;96563.13;;;13.10;100.00
77881;BME280;67077;50.298;18.996;2023-10-31T00:09:08;96554.23;;;13.18;100.00
77881;BME280;67077;50.298;18.996;2023-10-31T00:11:38;96548.77;;;13.23;100.00
77881;BME280;67077;50.298;18.996;2023-10-31T00:14:08;96548.59;;;13.25;100.00
77881;BME280;67077;50.298;18.996;2023-10-31T00:16:36;96544.02;;;13.29;100.00
77881;BME280;67077;50.298;18.996;2023-10-31T00:19:04;96535.88;;;13.31;100.00
77881;BME280;67077;50.298;18.996;2023-10-31T00:21:32;96535.33;;;13.32;100.00
77881;BME280;67077;50.298;18.996;2023-10-31T00:24:00;96530.83;;;13.31;100.00
77881;BME280;67077;50.298;18.996;2023-10-31T00:26:28;96521.67;;;13.33;100.00
77881;BME280;67077;50.298;18.996;2023-10-31T00:28:56;96520.42;;;13.37;100.00
77881;BME280;67077;50.298;18.996;2023-10-31T00:31:23;96512.48;;;13.41;100.00
77881;BME280;67077;50.298;18.996;2023-10-31T00:33:51;96505.61;;;13.46;100.00
77881;BME280;67077;50.298;18.996;2023-10-31T00:36:19;96501.35;;;13.55;100.00
77881;BME280;67077;50.298;18.996;2023-10-31T00:38:47;96502.68;;;13.65;100.00
77881;BME280;67077;50.298;18.996;2023-10-31T00:41:15;96503.94;;;13.74;100.00
77881;BME280;67077;50.298;18.996;2023-10-31T00:43:43;96495.60;;;13.85;100.00
77881;BME280;67077;50.298;18.996;2023-10-31T00:46:11;96487.02;;;13.94;100.00
77881;BME280;67077;50.298;18.996;2023-10-31T00:48:39;96481.66;;;14.00;100.00
77881;BME280;67077;50.298;18.996;2023-10-31T00:51:07;96469.63;;;14.03;100.00
77881;BME280;67077;50.298;18.996;2023-10-31T00:53:35;96466.13;;;14.07;100.00
77881;BME280;67077;50.298;18.996;2023-10-31T00:56:03;96465.59;;;14.11;100.00
77881;BME280;67077;50.298;18.996;2023-10-31T00:58:31;96461.77;;;14.11;100.00
77881;BME280;67077;50.298;18.996;2023-10-31T01:00:59;96456.52;;;14.11;100.00
77881;BME280;67077;50.298;18.996;2023-10-31T01:03:28;96448.90;;;14.11;100.00
77881;BME280;67077;50.298;18.996;2023-10-31T01:05:56;96439.34;;;14.10;100.00
77881;BME280;67077;50.298;18.996;2023-10-31T01:08:24;96437.01;;;14.10;100.00
77881;BME280;67077;50.298;18.996;2023-10-31T01:10:52;96434.88;;;14.11;100.00
77881;BME280;67077;50.298;18.996;2023-10-31T01:13:20;96428.52;;;14.12;100.00
77881;BME280;67077;50.298;18.996;2023-10-31T01:15:48;96418.60;;;14.15;100.00
77881;BME280;67077;50.298;18.996;2023-10-31T01:18:15;96414.49;;;14.17;100.00
77881;BME280;67077;50.298;18.996;2023-10-31T01:20:43;96409.21;;;14.19;100.00
77881;BME280;67077;50.298;18.996;2023-10-31T01:23:11;96401.89;;;14.22;100.00
77881;BME280;67077;50.298;18.996;2023-10-31T01:25:39;96395.38;;;14.23;100.00
77881;BME280;67077;50.298;18.996;2023-10-31T01:28:07;96379.08;;;14.21;100.00
77881;BME280;67077;50.298;18.996;2023-10-31T01:30:35;96366.73;;;14.17;100.00
77881;BME280;67077;50.298;18.996;2023-10-31T01:33:03;96358.13;;;14.13;100.00
77881;BME280;67077;50.298;18.996;2023-10-31T01:35:31;96359.85;;;14.09;100.00
77881;BME280;67077;50.298;18.996;2023-10-31T01:37:59;96365.12;;;14.06;100.00
77881;BME280;67077;50.298;18.996;2023-10-31T01:40:28;96368.02;;;14.04;100.00
77881;BME280;67077;50.298;18.996;2023-10-31T01:42:55;96368.77;;;14.05;100.00
77881;BME280;67077;50.298;18.996;2023-10-31T01:45:23;96369.17;;;14.08;100.00
77881;BME280;67077;50.298;18.996;2023-10-31T01:47:51;96366.91;;;14.10;100.00
77881;BME280;67077;50.298;18.996;2023-10-31T01:50:20;96363.51;;;14.13;100.00
77881;BME280;67077;50.298;18.996;2023-10-31T01:52:48;96360.96;;;14.17;100.00
77881;BME280;67077;50.298;18.996;2023-10-31T01:55:16;96367.14;;;14.18;100.00
77881;BME280;67077;50.298;18.996;2023-10-31T01:57:45;96361.10;;;14.20;100.00
77881;BME280;67077;50.298;18.996;2023-10-31T02:00:15;96355.70;;;14.23;100.00
77881;BME280;67077;50.298;18.996;2023-10-31T02:02:43;96352.93;;;14.24;100.00
77881;BME280;67077;50.298;18.996;2023-10-31T02:05:12;96344.66;;;14.25;100.00
77881;BME280;67077;50.298;18.996;2023-10-31T02:07:39;96350.30;;;14.26;100.00
77881;BME280;67077;50.298;18.996;2023-10-31T02:10:07;96343.23;;;14.26;100.00
77881;BME280;67077;50.298;18.996;2023-10-31T02:12:36;96337.56;;;14.28;100.00
77881;BME280;67077;50.298;18.996;2023-10-31T02:15:05;96335.46;;;14.31;100.00
77881;BME280;67077;50.298;18.996;2023-10-31T02:17:33;96328.16;;;14.39;100.00
77881;BME280;67077;50.298;18.996;2023-10-31T02:20:01;96324.23;;;14.50;100.00
77881;BME280;67077;50.298;18.996;2023-10-31T02:22:30;96320.48;;;14.61;100.00
77881;BME280;67077;50.298;18.996;2023-10-31T02:24:58;96310.38;;;14.74;100.00
77881;BME280;67077;50.298;18.996;2023-10-31T02:27:25;96301.63;;;14.87;100.00
77881;BME280;67077;50.298;18.996;2023-10-31T02:29:53;96294.88;;;15.02;100.00
77881;BME280;67077;50.298;18.996;2023-10-31T02:32:21;96284.77;;;15.18;100.00
77881;BME280;67077;50.298;18.996;2023-10-31T02:34:49;96284.68;;;15.37;100.00
77881;BME280;67077;50.298;18.996;2023-10-31T02:37:17;96284.17;;;15.49;100.00
77881;BME280;67077;50.298;18.996;2023-10-31T02:39:45;96280.10;;;15.61;100.00
77881;BME280;67077;50.298;18.996;2023-10-31T02:42:13;96281.02;;;15.73;100.00
77881;BME280;67077;50.298;18.996;2023-10-31T02:44:41;96278.71;;;15.81;100.00
77881;BME280;67077;50.298;18.996;2023-10-31T02:47:08;96279.47;;;15.92;100.00
77881;BME280;67077;50.298;18.996;2023-10-31T02:49:36;96279.27;;;16.03;100.00
77881;BME280;67077;50.298;18.996;2023-10-31T02:52:05;96273.02;;;16.12;100.00
77881;BME280;67077;50.298;18.996;2023-10-31T02:54:33;96272.17;;;16.20;100.00
77881;BME280;67077;50.298;18.996;2023-10-31T02:57:02;96273.26;;;16.25;100.00
77881;BME280;67077;50.298;18.996;2023-10-31T02:59:30;96276.80;;;16.28;100.00
77881;BME280;67077;50.298;18.996;2023-10-31T03:01:58;96273.44;;;16.29;100.00
77881;BME280;67077;50.298;18.996;2023-10-31T03:04:25;96275.91;;;16.31;100.00
77881;BME280;67077;50.298;18.996;2023-10-31T03:06:53;96278.09;;;16.34;100.00
77881;BME280;67077;50.298;18.996;2023-10-31T03:09:21;96270.36;;;16.35;100.00
77881;BME280;67077;50.298;18.996;2023-10-31T03:11:49;96265.36;;;16.39;100.00
77881;BME280;67077;50.298;18.996;2023-10-31T03:14:17;96261.02;;;16.40;100.00
77881;BME280;67077;50.298;18.996;2023-10-31T03:16:45;96252.52;;;16.43;100.00
77881;BME280;67077;50.298;18.996;2023-10-31T03:19:13;96243.72;;;16.44;100.00
77881;BME280;67077;50.298;18.996;2023-10-31T03:21:40;96246.52;;;16.48;100.00
77881;BME280;67077;50.298;18.996;2023-10-31T03:24:08;96248.11;;;16.51;100.00
77881;BME280;67077;50.298;18.996;2023-10-31T03:26:36;96254.09;;;16.52;100.00
77881;BME280;67077;50.298;18.996;2023-10-31T03:29:04;96254.15;;;16.51;100.00
77881;BME280;67077;50.298;18.996;2023-10-31T03:31:32;96251.02;;;16.52;100.00
77881;BME280;67077;50.298;18.996;2023-10-31T03:34:00;96253.13;;;16.54;100.00
77881;BME280;67077;50.298;18.996;2023-10-31T03:36:28;96243.59;;;16.54;100.00
77881;BME280;67077;50.298;18.996;2023-10-31T03:38:56;96237.70;;;16.55;100.00
77881;BME280;67077;50.298;18.996;2023-10-31T03:41:24;96230.59;;;16.54;100.00
77881;BME280;67077;50.298;18.996;2023-10-31T03:43:52;96224.89;;;16.56;100.00
77881;BME280;67077;50.298;18.996;2023-10-31T03:46:19;96222.82;;;16.56;100.00
77881;BME280;67077;50.298;18.996;2023-10-31T03:48:47;96221.04;;;16.58;100.00
77881;BME280;67077;50.298;18.996;2023-10-31T03:51:16;96214.29;;;16.60;100.00
77881;BME280;67077;50.298;18.996;2023-10-31T03:53:43;96216.22;;;16.64;100.00
77881;BME280;67077;50.298;18.996;2023-10-31T03:56:11;96215.34;;;16.68;100.00
77881;BME280;67077;50.298;18.996;2023-10-31T03:58:40;96207.21;;;16.72;100.00
77881;BME280;67077;50.298;18.996;2023-10-31T04:01:10;96200.61;;;16.77;100.00
77881;BME280;67077;50.298;18.996;2023-10-31T04:03:40;96201.25;;;16.83;100.00
77881;BME280;67077;50.298;18.996;2023-10-31T04:06:11;96185.03;;;16.88;100.00
77881;BME280;67077;50.298;18.996;2023-10-31T04:08:39;96181.66;;;16.96;100.00
77881;BME280;67077;50.298;18.996;2023-10-31T04:11:07;96172.59;;;17.03;100.00
77881;BME280;67077;50.298;18.996;2023-10-31T04:13:35;96169.45;;;17.09;100.00
77881;BME280;67077;50.298;18.996;2023-10-31T04:16:03;96162.73;;;17.11;100.00
77881;BME280;67077;50.298;18.996;2023-10-31T04:18:31;96163.18;;;17.15;100.00
77881;BME280;67077;50.298;18.996;2023-10-31T04:20:59;96157.29;;;17.18;100.00
77881;BME280;67077;50.298;18.996;2023-10-31T04:23:27;96152.28;;;17.20;100.00
77881;BME280;67077;50.298;18.996;2023-10-31T04:25:55;96148.19;;;17.22;100.00
77881;BME280;67077;50.298;18.996;2023-10-31T04:28:22;96147.90;;;17.24;100.00
77881;BME280;67077;50.298;18.996;2023-10-31T04:30:50;96146.50;;;17.26;100.00
77881;BME280;67077;50.298;18.996;2023-10-31T04:33:18;96150.17;;;17.27;100.00
77881;BME280;67077;50.298;18.996;2023-10-31T04:35:46;96154.45;;;17.28;100.00
77881;BME280;67077;50.298;18.996;2023-10-31T04:38:14;96149.61;;;17.28;100.00
77881;BME280;67077;50.298;18.996;2023-10-31T04:40:42;96155.65;;;17.29;100.00
77881;BME280;67077;50.298;18.996;2023-10-31T04:43:10;96168.63;;;17.29;100.00
77881;BME280;67077;50.298;18.996;2023-10-31T04:45:38;96175.11;;;17.31;100.00
77881;BME280;67077;50.298;18.996;2023-10-31T04:48:06;96170.77;;;17.35;100.00
77881;BME280;67077;50.298;18.996;2023-10-31T04:50:34;96163.61;;;17.39;100.00
77881;BME280;67077;50.298;18.996;2023-10-31T04:53:02;96162.05;;;17.45;100.00
77881;BME280;67077;50.298;18.996;2023-10-31T04:55:30;96154.43;;;17.49;100.00
77881;BME280;67077;50.298;18.996;2023-10-31T04:57:57;96155.60;;;17.52;100.00
77881;BME280;67077;50.298;18.996;2023-10-31T05:00:25;96150.80;;;17.54;100.00
77881;BME280;67077;50.298;18.996;2023-10-31T05:02:53;96152.36;;;17.57;100.00
77881;BME280;67077;50.298;18.996;2023-10-31T05:05:22;96157.61;;;17.61;100.00
77881;BME280;67077;50.298;18.996;2023-10-31T05:07:49;96158.02;;;17.63;100.00
77881;BME280;67077;50.298;18.996;2023-10-31T05:10:17;96161.11;;;17.66;98.06
77881;BME280;67077;50.298;18.996;2023-10-31T05:12:45;96163.65;;;17.67;78.12
77881;BME280;67077;50.298;18.996;2023-10-31T05:15:13;96163.70;;;17.67;76.71
77881;BME280;67077;50.298;18.996;2023-10-31T05:17:43;96169.34;;;17.67;77.10
77881;BME280;67077;50.298;18.996;2023-10-31T05:20:14;96173.27;;;17.65;75.92
77881;BME280;67077;50.298;18.996;2023-10-31T05:22:42;96172.35;;;17.64;75.97
77881;BME280;67077;50.298;18.996;2023-10-31T05:25:10;96174.80;;;17.65;74.30
77881;BME280;67077;50.298;18.996;2023-10-31T05:27:39;96177.33;;;17.67;73.86
77881;BME280;67077;50.298;18.996;2023-10-31T05:30:07;96175.11;;;17.68;73.69
77881;BME280;67077;50.298;18.996;2023-10-31T05:32:35;96179.44;;;17.68;72.72
77881;BME280;67077;50.298;18.996;2023-10-31T05:35:03;96179.90;;;17.70;72.42
77881;BME280;67077;50.298;18.996;2023-10-31T05:37:31;96175.72;;;17.70;71.74
77881;BME280;67077;50.298;18.996;2023-10-31T05:39:59;96179.23;;;17.73;71.57
77881;BME280;67077;50.298;18.996;2023-10-31T05:42:28;96175.52;;;17.74;70.93
77881;BME280;67077;50.298;18.996;2023-10-31T05:44:56;96180.88;;;17.73;71.31
77881;BME280;67077;50.298;18.996;2023-10-31T05:47:24;96180.69;;;17.73;71.53
77881;BME280;67077;50.298;18.996;2023-10-31T05:49:52;96174.83;;;17.71;70.72
77881;BME280;67077;50.298;18.996;2023-10-31T05:52:20;96181.97;;;17.72;70.88
77881;BME280;67077;50.298;18.996;2023-10-31T05:54:48;96189.28;;;17.73;70.56
77881;BME280;67077;50.298;18.996;2023-10-31T05:57:15;96186.11;;;17.72;70.83
77881;BME280;67077;50.298;18.996;2023-10-31T05:59:43;96182.61;;;17.72;70.04
77881;BME280;67077;50.298;18.996;2023-10-31T06:02:11;96186.09;;;17.75;69.82
77881;BME280;67077;50.298;18.996;2023-10-31T06:04:39;96181.20;;;17.76;69.94
77881;BME280;67077;50.298;18.996;2023-10-31T06:07:07;96191.31;;;17.77;69.74
77881;BME280;67077;50.298;18.996;2023-10-31T06:09:35;96192.19;;;17.79;69.42
77881;BME280;67077;50.298;18.996;2023-10-31T06:12:03;96193.27;;;17.80;69.56
77881;BME280;67077;50.298;18.996;2023-10-31T06:14:31;96192.91;;;17.81;69.21
77881;BME280;67077;50.298;18.996;2023-10-31T06:16:59;96189.41;;;17.81;69.26
77881;BME280;67077;50.298;18.996;2023-10-31T06:19:29;96195.60;;;17.80;70.39
77881;BME280;67077;50.298;18.996;2023-10-31T06:21:56;96202.45;;;17.78;70.57
77881;BME280;67077;50.298;18.996;2023-10-31T06:24:24;96206.46;;;17.76;70.10
77881;BME280;67077;50.298;18.996;2023-10-31T06:26:52;96204.42;;;17.74;70.40
77881;BME280;67077;50.298;18.996;2023-10-31T06:29:20;96201.80;;;17.72;70.44
77881;BME280;67077;50.298;18.996;2023-10-31T06:31:48;96208.39;;;17.71;70.23
77881;BME280;67077;50.298;18.996;2023-10-31T06:34:16;96207.94;;;17.70;71.13
77881;BME280;67077;50.298;18.996;2023-10-31T06:36:44;96217.09;;;17.68;71.28
77881;BME280;67077;50.298;18.996;2023-10-31T06:39:12;96220.92;;;17.65;71.00
77881;BME280;67077;50.298;18.996;2023-10-31T06:41:40;96227.58;;;17.63;71.58
77881;BME280;67077;50.298;18.996;2023-10-31T06:44:08;96231.11;;;17.61;72.04
77881;BME280;67077;50.298;18.996;2023-10-31T06:46:36;96237.06;;;17.59;72.60
77881;BME280;67077;50.298;18.996;2023-10-31T06:49:04;96237.23;;;17.54;73.29
77881;BME280;67077;50.298;18.996;2023-10-31T06:51:32;96236.85;;;17.50;73.02
77881;BME280;67077;50.298;18.996;2023-10-31T06:54:00;96259.83;;;17.45;73.41
77881;BME280;67077;50.298;18.996;2023-10-31T06:56:28;96257.84;;;17.39;73.80
77881;BME280;67077;50.298;18.996;2023-10-31T06:58:56;96260.70;;;17.33;74.26
77881;BME280;67077;50.298;18.996;2023-10-31T07:01:24;96257.31;;;17.27;74.72
77881;BME280;67077;50.298;18.996;2023-10-31T07:03:52;96250.08;;;17.22;75.49
77881;BME280;67077;50.298;18.996;2023-10-31T07:06:20;96248.95;;;17.16;75.76
77881;BME280;67077;50.298;18.996;2023-10-31T07:08:49;96254.70;;;17.10;76.28
77881;BME280;67077;50.298;18.996;2023-10-31T07:11:17;96251.93;;;17.05;76.59
77881;BME280;67077;50.298;18.996;2023-10-31T07:13:44;96247.45;;;16.99;76.86
77881;BME280;67077;50.298;18.996;2023-10-31T07:16:12;96246.38;;;16.93;77.63
77881;BME280;67077;50.298;18.996;2023-10-31T07:18:40;96245.48;;;16.89;78.46
77881;BME280;67077;50.298;18.996;2023-10-31T07:21:08;96247.05;;;16.85;78.84
77881;BME280;67077;50.298;18.996;2023-10-31T07:23:36;96249.79;;;16.81;79.53
77881;BME280;67077;50.298;18.996;2023-10-31T07:26:04;96258.98;;;16.78;80.10
77881;BME280;67077;50.298;18.996;2023-10-31T07:28:32;96257.02;;;16.75;81.06
77881;BME280;67077;50.298;18.996;2023-10-31T07:31:00;96268.26;;;16.72;81.48
77881;BME280;67077;50.298;18.996;2023-10-31T07:33:28;96275.30;;;16.68;83.16
77881;BME280;67077;50.298;18.996;2023-10-31T07:35:56;96286.50;;;16.66;82.86
77881;BME280;67077;50.298;18.996;2023-10-31T07:38:24;96296.34;;;16.62;82.94
77881;BME280;67077;50.298;18.996;2023-10-31T07:40:52;96298.81;;;16.59;83.40
77881;BME280;67077;50.298;18.996;2023-10-31T07:43:20;96299.53;;;16.55;83.83
77881;BME280;67077;50.298;18.996;2023-10-31T07:45:50;96300.98;;;16.52;84.06
77881;BME280;67077;50.298;18.996;2023-10-31T07:48:19;96303.02;;;16.49;84.18
77881;BME280;67077;50.298;18.996;2023-10-31T07:50:47;96304.31;;;16.44;84.49
77881;BME280;67077;50.298;18.996;2023-10-31T07:53:15;96305.16;;;16.40;85.08
77881;BME280;67077;50.298;18.996;2023-10-31T07:55:43;96305.05;;;16.36;85.89
77881;BME280;67077;50.298;18.996;2023-10-31T07:58:10;96307.86;;;16.32;85.98
77881;BME280;67077;50.298;18.996;2023-10-31T08:00:38;96309.84;;;16.28;86.39
77881;BME280;67077;50.298;18.996;2023-10-31T08:03:06;96312.13;;;16.25;86.66
77881;BME280;67077;50.298;18.996;2023-10-31T08:05:34;96314.38;;;16.22;87.34
77881;BME280;67077;50.298;18.996;2023-10-31T08:08:02;96314.64;;;16.20;87.67
77881;BME280;67077;50.298;18.996;2023-10-31T08:10:30;96323.83;;;16.19;87.68
77881;BME280;67077;50.298;18.996;2023-10-31T08:12:58;96332.89;;;16.18;87.46
77881;BME280;67077;50.298;18.996;2023-10-31T08:15:26;96332.75;;;16.17;87.55
77881;BME280;67077;50.298;18.996;2023-10-31T08:17:54;96340.77;;;16.17;87.01
77881;BME280;67077;50.298;18.996;2023-10-31T08:20:22;96347.69;;;16.17;86.68
77881;BME280;67077;50.298;18.996;2023-10-31T08:22:50;96348.34;;;16.17;86.13
77881;BME280;67077;50.298;18.996;2023-10-31T08:25:18;96350.78;;;16.18;85.53
77881;BME280;67077;50.298;18.996;2023-10-31T08:27:47;96359.55;;;16.18;86.22
77881;BME280;67077;50.298;18.996;2023-10-31T08:30:14;96354.16;;;16.18;86.57
77881;BME280;67077;50.298;18.996;2023-10-31T08:32:42;96357.39;;;16.17;86.91
77881;BME280;67077;50.298;18.996;2023-10-31T08:35:10;96358.77;;;16.17;86.84
77881;BME280;67077;50.298;18.996;2023-10-31T08:37:38;96369.41;;;16.15;87.19
77881;BME280;67077;50.298;18.996;2023-10-31T08:40:07;96373.83;;;16.12;86.33
77881;BME280;67077;50.298;18.996;2023-10-31T08:42:35;96377.91;;;16.09;85.96
77881;BME280;67077;50.298;18.996;2023-10-31T08:45:03;96378.95;;;16.07;86.22
77881;BME280;67077;50.298;18.996;2023-10-31T08:47:31;96379.54;;;16.05;86.78
77881;BME280;67077;50.298;18.996;2023-10-31T08:49:59;96379.03;;;16.03;87.02
77881;BME280;67077;50.298;18.996;2023-10-31T08:52:27;96388.16;;;16.01;87.57
77881;BME280;67077;50.298;18.996;2023-10-31T08:54:55;96402.63;;;15.99;88.12
77881;BME280;67077;50.298;18.996;2023-10-31T08:57:23;96408.80;;;15.96;88.70
77881;BME280;67077;50.298;18.996;2023-10-31T08:59:51;96405.23;;;15.92;89.38
77881;BME280;67077;50.298;18.996;2023-10-31T09:02:19;96414.86;;;15.89;90.99
77881;BME280;67077;50.298;18.996;2023-10-31T09:04:46;96407.39;;;15.86;91.55
77881;BME280;67077;50.298;18.996;2023-10-31T09:07:14;96417.66;;;15.81;92.87
77881;BME280;67077;50.298;18.996;2023-10-31T09:09:42;96428.49;;;15.77;93.71
77881;BME280;67077;50.298;18.996;2023-10-31T09:12:10;96416.59;;;15.71;94.75
77881;BME280;67077;50.298;18.996;2023-10-31T09:14:38;96429.39;;;15.68;95.87
77881;BME280;67077;50.298;18.996;2023-10-31T09:17:06;96445.51;;;15.65;96.88
77881;BME280;67077;50.298;18.996;2023-10-31T09:19:34;96454.79;;;15.61;98.16
77881;BME280;67077;50.298;18.996;2023-10-31T09:22:03;96463.91;;;15.57;99.62
77881;BME280;67077;50.298;18.996;2023-10-31T09:24:31;96456.52;;;15.52;100.00
77881;BME280;67077;50.298;18.996;2023-10-31T09:26:59;96453.26;;;15.51;100.00
77881;BME280;67077;50.298;18.996;2023-10-31T09:29:27;96453.63;;;15.52;100.00
77881;BME280;67077;50.298;18.996;2023-10-31T09:31:55;96455.21;;;15.55;100.00
77881;BME280;67077;50.298;18.996;2023-10-31T09:34:23;96453.19;;;15.56;100.00
77881;BME280;67077;50.298;18.996;2023-10-31T09:36:51;96458.05;;;15.55;100.00
77881;BME280;67077;50.298;18.996;2023-10-31T09:39:19;96457.82;;;15.52;100.00
77881;BME280;67077;50.298;18.996;2023-10-31T09:41:47;96471.38;;;15.47;100.00
77881;BME280;67077;50.298;18.996;2023-10-31T09:44:15;96480.55;;;15.36;100.00
77881;BME280;67077;50.298;18.996;2023-10-31T09:46:44;96488.60;;;15.25;100.00
77881;BME280;67077;50.298;18.996;2023-10-31T09:49:13;96488.77;;;15.15;100.00
77881;BME280;67077;50.298;18.996;2023-10-31T09:51:41;96488.30;;;15.06;100.00
77881;BME280;67077;50.298;18.996;2023-10-31T09:54:09;96485.84;;;15.03;100.00
77881;BME280;67077;50.298;18.996;2023-10-31T09:56:41;96481.80;;;15.05;100.00
77881;BME280;67077;50.298;18.996;2023-10-31T09:59:09;96477.17;;;15.13;100.00
77881;BME280;67077;50.298;18.996;2023-10-31T10:01:37;96473.88;;;15.23;100.00
77881;BME280;67077;50.298;18.996;2023-10-31T10:04:06;96479.68;;;15.30;100.00
77881;BME280;67077;50.298;18.996;2023-10-31T10:06:34;96484.77;;;15.38;100.00
77881;BME280;67077;50.298;18.996;2023-10-31T10:09:02;96479.29;;;15.47;100.00
77881;BME280;67077;50.298;18.996;2023-10-31T10:11:33;96471.98;;;15.52;100.00
77881;BME280;67077;50.298;18.996;2023-10-31T10:14:01;96469.77;;;15.59;100.00
77881;BME280;67077;50.298;18.996;2023-10-31T10:16:31;96471.54;;;15.69;100.00
77881;BME280;67077;50.298;18.996;2023-10-31T10:19:17;96475.08;;;15.78;100.00
77881;BME280;67077;50.298;18.996;2023-10-31T10:24:17;96466.66;;;15.93;100.00
77881;BME280;67077;50.298;18.996;2023-10-31T10:26:45;96454.03;;;15.99;100.00
77881;BME280;67077;50.298;18.996;2023-10-31T10:29:14;96447.63;;;16.09;100.00
77881;BME280;67077;50.298;18.996;2023-10-31T10:31:43;96453.64;;;16.18;100.00
77881;BME280;67077;50.298;18.996;2023-10-31T10:34:16;96452.11;;;16.27;100.00
77881;BME280;67077;50.298;18.996;2023-10-31T10:36:47;96448.48;;;16.32;100.00
77881;BME280;67077;50.298;18.996;2023-10-31T10:39:20;96455.52;;;16.29;100.00
77881;BME280;67077;50.298;18.996;2023-10-31T10:41:56;96461.12;;;16.27;100.00
77881;BME280;67077;50.298;18.996;2023-10-31T10:44:32;96467.44;;;16.23;100.00
77881;BME280;67077;50.298;18.996;2023-10-31T10:47:05;96480.09;;;16.15;100.00
77881;BME280;67077;50.298;18.996;2023-10-31T10:49:35;96477.02;;;16.07;100.00
77881;BME280;67077;50.298;18.996;2023-10-31T10:52:23;96472.53;;;16.05;100.00
77881;BME280;67077;50.298;18.996;2023-10-31T10:55:11;96480.17;;;16.08;100.00
77881;BME280;67077;50.298;18.996;2023-10-31T10:58:00;96477.58;;;16.06;100.00
77881;BME280;67077;50.298;18.996;2023-10-31T11:00:29;96484.46;;;16.05;100.00
77881;BME280;67077;50.298;18.996;2023-10-31T11:02:57;96479.05;;;16.07;100.00
77881;BME280;67077;50.298;18.996;2023-10-31T11:05:27;96469.83;;;16.07;100.00
77881;BME280;67077;50.298;18.996;2023-10-31T11:07:57;96478.45;;;16.06;100.00
77881;BME280;67077;50.298;18.996;2023-10-31T11:10:27;96482.86;;;16.07;100.00
77881;BME280;67077;50.298;18.996;2023-10-31T11:12:55;96483.05;;;16.11;100.00
77881;BME280;67077;50.298;18.996;2023-10-31T11:15:25;96488.41;;;16.09;100.00
77881;BME280;67077;50.298;18.996;2023-10-31T11:17:55;96474.24;;;16.07;100.00
77881;BME280;67077;50.298;18.996;2023-10-31T11:20:24;96477.49;;;16.05;100.00
77881;BME280;67077;50.298;18.996;2023-10-31T11:22:55;96486.39;;;16.04;100.00
77881;BME280;67077;50.298;18.996;2023-10-31T11:25:31;96494.18;;;16.04;100.00
77881;BME280;67077;50.298;18.996;2023-10-31T11:28:12;96489.84;;;16.03;100.00
77881;BME280;67077;50.298;18.996;2023-10-31T11:30:42;96484.00;;;15.96;100.00
77881;BME280;67077;50.298;18.996;2023-10-31T11:33:14;96476.23;;;15.90;100.00
77881;BME280;67077;50.298;18.996;2023-10-31T11:35:42;96464.17;;;15.86;100.00
77881;BME280;67077;50.298;18.996;2023-10-31T11:38:13;96463.52;;;15.79;100.00
77881;BME280;67077;50.298;18.996;2023-10-31T11:43:12;96483.92;;;15.68;100.00
77881;BME280;67077;50.298;18.996;2023-10-31T11:45:44;96507.29;;;15.68;100.00
77881;BME280;67077;50.298;18.996;2023-10-31T11:48:15;96512.77;;;15.70;100.00
77881;BME280;67077;50.298;18.996;2023-10-31T11:50:43;96499.73;;;15.71;100.00
77881;BME280;67077;50.298;18.996;2023-10-31T11:53:13;96496.76;;;15.73;100.00
77881;BME280;67077;50.298;18.996;2023-10-31T11:55:43;96497.30;;;15.73;100.00
77881;BME280;67077;50.298;18.996;2023-10-31T11:58:22;96501.45;;;15.78;100.00
77881;BME280;67077;50.298;18.996;2023-10-31T12:01:02;96498.13;;;15.86;100.00
77881;BME280;67077;50.298;18.996;2023-10-31T12:03:39;96490.05;;;15.91;100.00
77881;BME280;67077;50.298;18.996;2023-10-31T12:06:11;96488.40;;;15.93;100.00
77881;BME280;67077;50.298;18.996;2023-10-31T12:08:40;96485.76;;;15.96;100.00
77881;BME280;67077;50.298;18.996;2023-10-31T12:13:42;96454.11;;;15.98;100.00
77881;BME280;67077;50.298;18.996;2023-10-31T12:16:10;96453.36;;;15.93;100.00
77881;BME280;67077;50.298;18.996;2023-10-31T12:18:40;96442.84;;;15.92;100.00
77881;BME280;67077;50.298;18.996;2023-10-31T12:21:08;96442.83;;;15.90;100.00
77881;BME280;67077;50.298;18.996;2023-10-31T12:23:38;96445.65;;;15.86;100.00
77881;BME280;67077;50.298;18.996;2023-10-31T12:26:06;96443.79;;;15.87;100.00
77881;BME280;67077;50.298;18.996;2023-10-31T12:28:34;96445.15;;;15.83;100.00
77881;BME280;67077;50.298;18.996;2023-10-31T12:31:08;96443.97;;;15.77;100.00
77881;BME280;67077;50.298;18.996;2023-10-31T12:33:38;96438.27;;;15.72;100.00
77881;BME280;67077;50.298;18.996;2023-10-31T12:36:06;96437.05;;;15.69;100.00
77881;BME280;67077;50.298;18.996;2023-10-31T12:38:34;96428.16;;;15.66;100.00
77881;BME280;67077;50.298;18.996;2023-10-31T12:41:03;96424.94;;;15.61;100.00
77881;BME280;67077;50.298;18.996;2023-10-31T12:43:34;96432.88;;;15.56;100.00
77881;BME280;67077;50.298;18.996;2023-10-31T12:46:28;96443.73;;;15.54;100.00
77881;BME280;67077;50.298;18.996;2023-10-31T12:48:58;96448.05;;;15.52;100.00
77881;BME280;67077;50.298;18.996;2023-10-31T12:51:29;96435.74;;;15.49;100.00
77881;BME280;67077;50.298;18.996;2023-10-31T12:53:57;96435.66;;;15.47;100.00
77881;BME280;67077;50.298;18.996;2023-10-31T12:56:39;96445.59;;;15.44;100.00
77881;BME280;67077;50.298;18.996;2023-10-31T12:59:08;96455.69;;;15.38;100.00